createdAt,value
2023-01-29T00:01:43.477Z,100363.56
2023-01-29T00:04:11.290Z,100374.97
2023-01-29T00:06:39.664Z,100382.50
2023-01-29T00:09:07.239Z,100373.84
2023-01-29T00:11:34.936Z,100372.91
2023-01-29T00:14:02.476Z,100365.28
2023-01-29T00:16:29.999Z,100375.75
2023-01-29T00:18:58.854Z,100378.28
2023-01-29T00:21:26.506Z,100377.53
2023-01-29T00:23:55.476Z,100382.09
2023-01-29T00:26:23.184Z,100386.06
2023-01-29T00:28:50.762Z,100389.84
2023-01-29T00:31:21.180Z,100393.03
2023-01-29T00:33:49.407Z,100388.09
2023-01-29T00:36:20.438Z,100391.22
2023-01-29T00:38:54.710Z,100415.09
2023-01-29T00:41:40.782Z,100403.09
2023-01-29T00:44:26.810Z,100403.16
2023-01-29T00:46:57.482Z,100404.91
2023-01-29T00:49:25.837Z,100398.88
2023-01-29T00:52:12.101Z,100394.63
2023-01-29T00:54:39.700Z,100395.38
2023-01-29T00:57:07.246Z,100383.75
2023-01-29T00:59:34.771Z,100395.91
2023-01-29T01:02:20.222Z,100400.31
2023-01-29T01:04:47.778Z,100398.53
2023-01-29T01:07:16.691Z,100396.19
2023-01-29T01:10:01.714Z,100388.47
2023-01-29T01:12:29.975Z,100392.31
2023-01-29T01:14:57.654Z,100377.19
2023-01-29T01:17:25.884Z,100391.22
2023-01-29T01:19:53.531Z,100385.91
2023-01-29T01:22:22.507Z,100382.25
2023-01-29T01:24:50.410Z,100381.28
2023-01-29T01:27:19.553Z,100365.69
2023-01-29T01:29:47.324Z,100362.53
2023-01-29T01:32:15.855Z,100357.53
2023-01-29T01:34:45.247Z,100337.34
2023-01-29T01:37:13.084Z,100355.78
2023-01-29T01:39:42.044Z,100352.34
2023-01-29T01:42:13.106Z,100356.56
2023-01-29T01:45:00.596Z,100361.72
2023-01-29T01:47:32.400Z,100352.31
2023-01-29T01:50:03.267Z,100351.31
2023-01-29T01:52:32.333Z,100347.88
2023-01-29T01:55:01.677Z,100344.44
2023-01-29T01:57:30.134Z,100323.84
2023-01-29T02:00:00.984Z,100330.72
2023-01-29T02:02:46.518Z,100325.41
2023-01-29T02:05:32.799Z,100329.56
2023-01-29T02:08:18.027Z,100321.81
2023-01-29T02:10:49.855Z,100328.59
2023-01-29T02:13:18.570Z,100313.09
2023-01-29T02:15:48.569Z,100312.09
2023-01-29T02:18:17.960Z,100307.69
2023-01-29T02:20:51.093Z,100316.16
2023-01-29T02:23:38.989Z,100310.41
2023-01-29T02:26:46.996Z,100317.34
2023-01-29T02:29:27.168Z,100307.78
2023-01-29T02:32:14.250Z,100311.13
2023-01-29T02:35:05.421Z,100322.13
2023-01-29T02:37:38.338Z,100331.78
2023-01-29T02:40:15.428Z,100333.34
2023-01-29T02:42:50.060Z,100336.72
2023-01-29T02:45:20.510Z,100339.25
2023-01-29T02:47:50.154Z,100342.94
2023-01-29T02:50:21.531Z,100344.78
2023-01-29T02:52:56.752Z,100355.16
2023-01-29T02:55:29.758Z,100357.97
2023-01-29T02:58:00.709Z,100351.63
2023-01-29T03:00:36.639Z,100366.56
2023-01-29T03:03:08.799Z,100361.53
2023-01-29T03:05:43.454Z,100356.84
2023-01-29T03:08:15.419Z,100358.56
2023-01-29T03:10:46.933Z,100362.94
2023-01-29T03:13:16.393Z,100342.13
2023-01-29T03:15:51.153Z,100342.28
2023-01-29T03:18:20.134Z,100335.34
2023-01-29T03:20:50.530Z,100338.00
2023-01-29T03:23:27.136Z,100339.72
2023-01-29T03:26:13.921Z,100340.09
2023-01-29T03:29:01.152Z,100343.69
2023-01-29T03:31:48.850Z,100359.25
2023-01-29T03:34:24.144Z,100352.63
2023-01-29T03:36:56.012Z,100359.53
2023-01-29T03:39:24.244Z,100349.56
2023-01-29T03:41:56.564Z,100359.97
2023-01-29T03:44:31.619Z,100361.81
2023-01-29T03:47:10.247Z,100353.91
2023-01-29T03:49:46.160Z,100351.34
2023-01-29T03:52:17.695Z,100356.38
2023-01-29T03:54:55.394Z,100356.09
2023-01-29T03:57:31.012Z,100351.09
2023-01-29T04:00:04.574Z,100343.22
2023-01-29T04:02:36.901Z,100345.34
2023-01-29T04:05:07.659Z,100353.94
2023-01-29T04:07:36.547Z,100358.28
2023-01-29T04:10:07.187Z,100353.56
2023-01-29T04:12:38.985Z,100364.94
2023-01-29T04:15:10.762Z,100346.00
2023-01-29T04:17:41.657Z,100352.03
2023-01-29T04:20:11.277Z,100330.38
2023-01-29T04:22:40.449Z,100332.34
2023-01-29T04:25:15.495Z,100324.19
2023-01-29T04:27:48.616Z,100335.63
2023-01-29T04:30:25.403Z,100334.03
2023-01-29T04:33:05.002Z,100331.31
2023-01-29T04:35:38.231Z,100313.19
2023-01-29T04:38:14.083Z,100333.13
2023-01-29T04:40:59.588Z,100330.63
2023-01-29T04:43:30.639Z,100326.31
2023-01-29T04:46:09.535Z,100327.16
2023-01-29T04:48:46.385Z,100342.66
2023-01-29T04:51:18.918Z,100341.03
2023-01-29T04:53:49.490Z,100338.59
2023-01-29T04:56:20.379Z,100338.38
2023-01-29T04:58:51.030Z,100337.53
2023-01-29T05:01:20.394Z,100337.25
2023-01-29T05:03:51.591Z,100332.88
2023-01-29T05:06:19.656Z,100325.81
2023-01-29T05:08:48.883Z,100330.19
2023-01-29T05:11:17.664Z,100333.81
2023-01-29T05:13:45.575Z,100339.53
2023-01-29T05:16:16.620Z,100343.06
2023-01-29T05:18:44.328Z,100337.03
2023-01-29T05:21:13.283Z,100349.19
2023-01-29T05:23:53.007Z,100338.88
2023-01-29T05:26:38.643Z,100329.59
2023-01-29T05:29:06.440Z,100330.41
2023-01-29T05:31:34.116Z,100332.31
2023-01-29T05:34:01.721Z,100329.50
2023-01-29T05:36:30.719Z,100327.94
2023-01-29T05:38:58.368Z,100308.94
2023-01-29T05:41:25.939Z,100316.56
2023-01-29T05:43:53.773Z,100322.66
2023-01-29T05:46:21.345Z,100319.94
2023-01-29T05:48:48.930Z,100324.19
2023-01-29T05:51:16.503Z,100325.31
2023-01-29T05:53:45.373Z,100333.00
2023-01-29T05:56:12.924Z,100321.94
2023-01-29T05:58:40.718Z,100322.69
2023-01-29T06:01:12.907Z,100326.78
2023-01-29T06:03:40.583Z,100338.25
2023-01-29T06:06:08.334Z,100336.31
2023-01-29T06:08:35.897Z,100318.06
2023-01-29T06:11:05.656Z,100328.53
2023-01-29T06:13:33.284Z,100338.00
2023-01-29T06:16:01.015Z,100342.22
2023-01-29T06:18:28.685Z,100331.81
2023-01-29T06:20:56.284Z,100334.47
2023-01-29T06:23:23.874Z,100334.66
2023-01-29T06:25:51.474Z,100337.19
2023-01-29T06:28:20.384Z,100335.31
2023-01-29T06:33:17.532Z,100312.97
2023-01-29T06:35:45.069Z,100313.06
2023-01-29T06:38:12.658Z,100307.91
2023-01-29T06:40:40.220Z,100309.56
2023-01-29T06:43:07.833Z,100311.00
2023-01-29T06:45:36.718Z,100313.66
2023-01-29T06:48:04.497Z,100310.19
2023-01-29T06:50:32.044Z,100321.66
2023-01-29T06:53:00.180Z,100310.31
2023-01-29T06:55:27.715Z,100320.50
2023-01-29T06:57:55.342Z,100322.41
2023-01-29T07:00:22.996Z,100318.75
2023-01-29T07:02:52.009Z,100323.00
2023-01-29T07:05:19.924Z,100323.16
2023-01-29T07:07:47.495Z,100314.25
2023-01-29T07:10:15.424Z,100311.72
2023-01-29T07:12:43.332Z,100323.22
2023-01-29T07:15:12.587Z,100321.94
2023-01-29T07:17:40.578Z,100333.63
2023-01-29T07:20:11.165Z,100331.34
2023-01-29T07:22:38.835Z,100336.00
2023-01-29T07:25:07.782Z,100341.75
2023-01-29T07:27:35.328Z,100350.59
2023-01-29T07:30:02.945Z,100355.63
2023-01-29T07:32:30.511Z,100360.00
2023-01-29T07:34:58.071Z,100361.81
2023-01-29T07:37:26.997Z,100361.09
2023-01-29T07:39:55.121Z,100366.13
2023-01-29T07:42:23.356Z,100370.88
2023-01-29T07:44:50.955Z,100364.53
2023-01-29T07:47:18.513Z,100370.56
2023-01-29T07:49:46.115Z,100361.97
2023-01-29T07:52:13.782Z,100356.00
2023-01-29T07:54:42.637Z,100360.31
2023-01-29T07:57:10.138Z,100345.72
2023-01-29T07:59:37.688Z,100344.91
2023-01-29T08:02:05.430Z,100345.06
2023-01-29T08:04:33.024Z,100350.31
2023-01-29T08:07:00.599Z,100333.94
2023-01-29T08:09:28.162Z,100327.81
2023-01-29T08:11:57.184Z,100340.06
2023-01-29T08:14:25.071Z,100341.88
2023-01-29T08:16:52.666Z,100341.13
2023-01-29T08:19:20.302Z,100339.50
2023-01-29T08:21:47.962Z,100333.56
2023-01-29T08:24:15.663Z,100336.25
2023-01-29T08:26:43.334Z,100353.19
2023-01-29T08:29:13.156Z,100359.25
2023-01-29T08:31:40.730Z,100365.97
2023-01-29T08:34:08.363Z,100359.16
2023-01-29T08:36:36.296Z,100349.03
2023-01-29T08:39:04.215Z,100337.00
2023-01-29T08:41:31.818Z,100334.50
2023-01-29T08:44:01.446Z,100333.69
2023-01-29T08:46:30.398Z,100315.41
2023-01-29T08:48:57.986Z,100334.31
2023-01-29T08:51:26.574Z,100338.81
2023-01-29T08:53:54.515Z,100320.59
2023-01-29T08:56:22.405Z,100327.47
2023-01-29T08:58:49.951Z,100348.44
2023-01-29T09:01:17.688Z,100355.09
2023-01-29T09:03:46.924Z,100360.44
2023-01-29T09:06:15.772Z,100367.44
2023-01-29T09:08:43.421Z,100373.53
2023-01-29T09:11:11.560Z,100365.53
2023-01-29T09:13:39.171Z,100356.66
2023-01-29T09:16:07.528Z,100368.09
2023-01-29T09:18:35.162Z,100368.09
2023-01-29T09:21:04.779Z,100373.47
2023-01-29T09:23:32.416Z,100383.69
2023-01-29T09:26:00.209Z,100377.69
2023-01-29T09:28:27.782Z,100378.56
2023-01-29T09:30:55.407Z,100379.59
2023-01-29T09:33:24.602Z,100371.69
2023-01-29T09:35:52.216Z,100383.75
2023-01-29T09:38:21.143Z,100392.94
2023-01-29T09:40:56.851Z,100387.25
2023-01-29T09:43:28.552Z,100395.41
2023-01-29T09:45:59.133Z,100396.34
2023-01-29T09:48:29.447Z,100392.19
2023-01-29T09:50:59.936Z,100384.97
2023-01-29T09:53:32.658Z,100385.91
2023-01-29T09:56:03.130Z,100390.44
2023-01-29T09:58:33.732Z,100384.56
2023-01-29T10:01:09.089Z,100390.16
2023-01-29T10:03:49.333Z,100403.38
2023-01-29T10:06:23.851Z,100396.50
2023-01-29T10:09:30.947Z,100398.25
2023-01-29T10:12:03.926Z,100386.25
2023-01-29T10:14:38.154Z,100384.44
2023-01-29T10:17:16.208Z,100380.13
2023-01-29T10:20:11.486Z,100375.75
2023-01-29T10:22:47.072Z,100380.16
2023-01-29T10:25:18.281Z,100378.56
2023-01-29T10:27:49.916Z,100386.38
2023-01-29T10:30:31.055Z,100383.00
2023-01-29T10:33:00.924Z,100371.91
2023-01-29T10:35:31.814Z,100360.66
2023-01-29T10:38:09.934Z,100357.38
2023-01-29T10:40:42.347Z,100337.66
2023-01-29T10:43:12.823Z,100332.41
2023-01-29T10:45:44.688Z,100323.94
2023-01-29T10:48:35.529Z,100327.59
2023-01-29T10:51:11.995Z,100320.84
2023-01-29T10:53:48.265Z,100315.53
2023-01-29T10:56:28.338Z,100308.00
2023-01-29T10:58:57.542Z,100300.91
2023-01-29T11:01:26.633Z,100274.38
2023-01-29T11:03:58.315Z,100283.22
2023-01-29T11:06:29.799Z,100281.66
2023-01-29T11:09:01.056Z,100262.94
2023-01-29T11:11:34.491Z,100267.59
2023-01-29T11:14:07.184Z,100260.47
2023-01-29T11:16:42.513Z,100277.59
2023-01-29T11:19:10.366Z,100224.69
2023-01-29T11:21:52.370Z,100246.38
2023-01-29T11:24:20.372Z,100258.69
2023-01-29T11:26:50.762Z,100253.25
2023-01-29T11:29:40.294Z,100247.41
2023-01-29T11:32:09.568Z,100220.34
2023-01-29T11:34:57.206Z,100250.00
2023-01-29T11:37:25.267Z,100240.31
2023-01-29T11:39:53.255Z,100237.78
2023-01-29T11:42:24.373Z,100235.97
2023-01-29T11:44:51.908Z,100237.72
2023-01-29T11:47:20.475Z,100237.00
2023-01-29T11:49:49.959Z,100248.13
2023-01-29T11:52:19.772Z,100242.38
2023-01-29T11:54:50.003Z,100246.66
2023-01-29T11:57:28.699Z,100245.78
2023-01-29T11:59:58.088Z,100234.25
2023-01-29T12:02:30.741Z,100234.53
2023-01-29T12:04:59.739Z,100219.81
2023-01-29T12:07:27.857Z,100226.75
2023-01-29T12:09:57.524Z,100209.53
2023-01-29T12:12:34.636Z,100206.09
2023-01-29T12:15:07.490Z,100198.97
2023-01-29T12:17:38.356Z,100188.69
2023-01-29T12:20:12.067Z,100190.75
2023-01-29T12:22:44.862Z,100178.34
2023-01-29T12:25:20.275Z,100174.03
2023-01-29T12:27:54.542Z,100168.03
2023-01-29T12:30:24.815Z,100161.19
2023-01-29T12:32:57.721Z,100161.16
2023-01-29T12:35:27.302Z,100157.66
2023-01-29T12:38:00.790Z,100136.97
2023-01-29T12:40:30.591Z,100148.09
2023-01-29T12:43:05.203Z,100142.19
2023-01-29T12:45:33.722Z,100149.22
2023-01-29T12:48:03.383Z,100144.91
2023-01-29T12:50:34.529Z,100154.56
2023-01-29T12:53:04.838Z,100143.53
2023-01-29T12:55:38.270Z,100138.53
2023-01-29T12:58:13.567Z,100128.13
2023-01-29T13:00:45.097Z,100123.78
2023-01-29T13:03:20.769Z,100127.38
2023-01-29T13:05:50.977Z,100113.38
2023-01-29T13:08:21.739Z,100111.78
2023-01-29T13:10:51.907Z,100120.50
2023-01-29T13:13:26.120Z,100108.31
2023-01-29T13:15:54.074Z,100109.16
2023-01-29T13:18:34.636Z,100095.97
2023-01-29T13:21:02.305Z,100100.22
2023-01-29T13:23:34.909Z,100090.81
2023-01-29T13:26:02.683Z,100096.91
2023-01-29T13:28:31.827Z,100083.09
2023-01-29T13:31:14.511Z,100081.38
2023-01-29T13:33:43.312Z,100076.25
2023-01-29T13:36:17.029Z,100080.63
2023-01-29T13:38:45.293Z,100073.63
2023-01-29T13:41:13.206Z,100065.00
2023-01-29T13:43:44.043Z,100074.53
2023-01-29T13:46:13.547Z,100055.34
2023-01-29T13:48:44.115Z,100080.63
2023-01-29T13:51:15.513Z,100056.31
2023-01-29T13:53:43.564Z,100065.03
2023-01-29T13:56:29.325Z,100061.56
2023-01-29T13:58:58.744Z,100056.31
2023-01-29T14:02:04.890Z,100056.25
2023-01-29T14:04:34.069Z,100045.03
2023-01-29T14:07:03.105Z,100051.16
2023-01-29T14:09:50.564Z,100040.72
2023-01-29T14:12:39.200Z,100049.38
2023-01-29T14:15:23.105Z,100039.81
2023-01-29T14:18:18.244Z,100037.25
2023-01-29T14:21:00.833Z,100041.59
2023-01-29T14:23:40.353Z,100036.34
2023-01-29T14:26:22.390Z,100044.13
2023-01-29T14:28:55.281Z,100037.19
2023-01-29T14:31:49.945Z,100040.63
2023-01-29T14:34:23.681Z,100037.16
2023-01-29T14:36:55.494Z,100029.34
2023-01-29T14:39:29.548Z,100034.53
2023-01-29T14:41:57.780Z,100044.03
2023-01-29T14:44:59.154Z,100037.06
2023-01-29T14:48:03.110Z,100035.25
2023-01-29T14:51:06.735Z,100035.31
2023-01-29T14:53:46.492Z,100037.06
2023-01-29T14:56:17.251Z,100035.25
2023-01-29T14:58:47.040Z,100032.66
2023-01-29T15:01:22.577Z,100016.94
2023-01-29T15:03:53.432Z,100011.81
2023-01-29T15:06:25.894Z,100016.09
2023-01-29T15:08:58.105Z,100016.03
2023-01-29T15:11:35.390Z,100016.06
2023-01-29T15:14:24.829Z,100016.94
2023-01-29T15:17:00.529Z,100010.88
2023-01-29T15:19:32.655Z,100011.72
2023-01-29T15:22:05.002Z,100006.44
2023-01-29T15:24:32.631Z,99998.56
2023-01-29T15:27:00.305Z,100005.56
2023-01-29T15:29:28.832Z,100000.31
2023-01-29T15:31:56.972Z,99997.69
2023-01-29T15:34:24.726Z,99995.09
2023-01-29T15:36:53.662Z,99993.25
2023-01-29T15:39:23.365Z,99982.78
2023-01-29T15:41:52.108Z,99986.22
2023-01-29T15:44:21.912Z,99975.03
2023-01-29T15:46:52.395Z,99985.31
2023-01-29T15:49:25.042Z,99975.75
2023-01-29T15:51:58.994Z,99967.22
2023-01-29T15:54:27.579Z,99974.06
2023-01-29T15:56:55.521Z,99961.84
2023-01-29T15:59:25.896Z,99963.59
2023-01-29T16:01:53.704Z,99959.28
2023-01-29T16:04:25.670Z,99950.53
2023-01-29T16:06:54.295Z,99949.63
2023-01-29T16:09:25.298Z,99947.78
2023-01-29T16:11:54.517Z,99941.81
2023-01-29T16:14:25.370Z,99949.50
2023-01-29T16:16:53.462Z,99956.25
2023-01-29T16:19:23.511Z,99964.97
2023-01-29T16:21:57.796Z,99944.00
2023-01-29T16:24:27.256Z,99958.94
2023-01-29T16:26:59.473Z,99969.22
2023-01-29T16:29:31.690Z,99970.03
2023-01-29T16:32:02.270Z,99957.75
2023-01-29T16:34:33.169Z,99973.34
2023-01-29T16:37:02.089Z,99975.91
2023-01-29T16:39:33.720Z,99973.22
2023-01-29T16:42:26.431Z,99986.00
2023-01-29T16:44:56.592Z,99985.09
2023-01-29T16:47:29.637Z,99985.91
2023-01-29T16:49:58.304Z,99991.88
2023-01-29T16:52:28.301Z,99988.44
2023-01-29T16:55:17.149Z,99986.84
2023-01-29T16:57:45.557Z,99985.09
2023-01-29T17:00:21.566Z,99987.09
2023-01-29T17:02:52.211Z,99987.00
2023-01-29T17:05:23.308Z,99990.31
2023-01-29T17:07:51.195Z,99990.22
2023-01-29T17:10:21.475Z,100001.41
2023-01-29T17:12:54.675Z,99996.97
2023-01-29T17:15:31.988Z,100006.59
2023-01-29T17:18:01.146Z,100010.81
2023-01-29T17:20:28.804Z,100009.00
2023-01-29T17:22:56.395Z,100012.34
2023-01-29T17:25:25.377Z,100000.25
2023-01-29T17:27:53.155Z,100008.78
2023-01-29T17:30:22.833Z,100015.66
2023-01-29T17:32:50.419Z,100011.31
2023-01-29T17:35:18.825Z,100012.13
2023-01-29T17:37:46.685Z,100005.13
2023-01-29T17:40:22.779Z,100010.31
2023-01-29T17:42:51.805Z,100010.28
2023-01-29T17:45:19.759Z,100015.31
2023-01-29T17:47:47.555Z,100021.50
2023-01-29T17:50:20.474Z,100017.28
2023-01-29T17:52:48.252Z,100016.16
2023-01-29T17:55:16.465Z,100014.47
2023-01-29T17:57:44.237Z,100018.66
2023-01-29T18:00:18.156Z,100014.28
2023-01-29T18:02:46.079Z,100018.69
2023-01-29T18:05:14.825Z,100007.56
2023-01-29T18:07:44.136Z,100005.59
2023-01-29T18:10:15.457Z,100007.38
2023-01-29T18:12:43.099Z,100000.44
2023-01-29T18:15:11.260Z,99998.75
2023-01-29T18:17:40.604Z,100005.47
2023-01-29T18:20:18.876Z,99992.63
2023-01-29T18:22:46.833Z,99991.69
2023-01-29T18:25:15.200Z,99997.66
2023-01-29T18:27:43.079Z,100001.00
2023-01-29T18:30:11.773Z,99990.63
2023-01-29T18:32:40.813Z,99996.59
2023-01-29T18:35:09.658Z,99990.59
2023-01-29T18:37:37.224Z,99987.78
2023-01-29T18:40:06.622Z,99997.28
2023-01-29T18:42:35.942Z,99988.72
2023-01-29T18:45:03.649Z,99988.63
2023-01-29T18:47:31.197Z,99995.41
2023-01-29T18:50:00.089Z,99982.44
2023-01-29T18:52:27.775Z,99982.38
2023-01-29T18:54:55.566Z,99975.34
2023-01-29T18:58:26.066Z,99972.66
2023-01-29T19:00:12.064Z,99969.28
2023-01-29T19:02:39.695Z,99974.28
2023-01-29T19:05:09.129Z,99973.44
2023-01-29T19:07:36.755Z,99975.28
2023-01-29T19:10:06.693Z,99971.91
2023-01-29T19:12:34.583Z,99971.03
2023-01-29T19:15:02.320Z,99976.25
2023-01-29T19:17:29.988Z,99970.25
2023-01-29T19:20:01.934Z,99965.94
2023-01-29T19:22:30.916Z,99970.94
2023-01-29T19:24:58.583Z,99965.66
2023-01-29T19:27:30.199Z,99974.25
2023-01-29T19:29:58.106Z,99975.84
2023-01-29T19:32:25.784Z,99968.81
2023-01-29T19:34:53.475Z,99967.03
2023-01-29T19:37:21.029Z,99969.53
2023-01-29T19:39:49.960Z,99961.78
2023-01-29T19:42:17.565Z,99956.69
2023-01-29T19:44:45.392Z,99947.97
2023-01-29T19:47:13.000Z,99954.06
2023-01-29T19:49:41.305Z,99951.59
2023-01-29T19:52:14.812Z,99958.28
2023-01-29T19:54:46.078Z,99965.19
2023-01-29T19:57:15.120Z,99962.75
2023-01-29T19:59:45.607Z,99951.47
2023-01-29T20:02:13.444Z,99957.00
2023-01-29T20:04:41.031Z,99953.53
2023-01-29T20:07:09.291Z,99951.75
2023-01-29T20:09:36.879Z,99956.78
2023-01-29T20:12:04.755Z,99956.81
2023-01-29T20:14:33.805Z,99954.97
2023-01-29T20:17:01.585Z,99953.22
2023-01-29T20:19:29.165Z,99960.41
2023-01-29T20:21:56.800Z,99952.66
2023-01-29T20:24:24.709Z,99956.00
2023-01-29T20:26:52.351Z,99943.88
2023-01-29T20:29:20.002Z,99934.63
2023-01-29T20:31:49.162Z,99927.03
2023-01-29T20:34:17.268Z,99921.13
2023-01-29T20:36:44.919Z,99921.03
2023-01-29T20:39:12.525Z,99920.97
2023-01-29T20:41:42.493Z,99914.13
2023-01-29T20:44:12.580Z,99907.44
2023-01-29T20:46:40.149Z,99899.81
2023-01-29T20:49:11.779Z,99890.38
2023-01-29T20:51:39.459Z,99880.91
2023-01-29T20:54:07.970Z,99872.56
2023-01-29T20:56:41.922Z,99862.13
2023-01-29T20:59:12.179Z,99859.69
2023-01-29T21:04:16.137Z,99850.34
2023-01-29T21:06:43.697Z,99862.56
2023-01-29T21:09:11.325Z,99859.94
2023-01-29T21:11:38.891Z,99834.94
2023-01-29T21:14:07.122Z,99847.81
2023-01-29T21:16:34.733Z,99839.34
2023-01-29T21:19:03.333Z,99833.31
2023-01-29T21:21:32.285Z,99838.59
2023-01-29T21:23:59.940Z,99835.91
2023-01-29T21:26:27.578Z,99836.78
2023-01-29T21:28:55.256Z,99846.34
2023-01-29T21:31:22.944Z,99837.59
2023-01-29T21:33:50.629Z,99846.28
2023-01-29T21:36:18.271Z,99846.28
2023-01-29T21:38:47.225Z,99833.34
2023-01-29T21:41:14.813Z,99821.34
2023-01-29T21:43:41.476Z,99822.28
2023-01-29T21:46:11.811Z,99805.91
2023-01-29T21:48:41.788Z,99806.88
2023-01-29T21:51:09.740Z,99801.69
2023-01-29T21:53:37.695Z,99792.19
2023-01-29T21:56:07.316Z,99789.59
2023-01-29T21:58:34.952Z,99766.34
2023-01-29T22:01:35.730Z,99768.13
2023-01-29T22:03:50.705Z,99769.88
2023-01-29T22:06:18.968Z,99768.16
2023-01-29T22:08:48.402Z,99740.50
2023-01-29T22:11:18.049Z,99762.09
2023-01-29T22:13:45.768Z,99763.78
2023-01-29T22:16:13.429Z,99769.94
2023-01-29T22:18:43.107Z,99768.25
2023-01-29T22:21:15.794Z,99772.50
2023-01-29T22:23:49.454Z,99771.69
2023-01-29T22:26:25.043Z,99769.09
2023-01-29T22:28:54.184Z,99774.28
2023-01-29T22:31:22.303Z,99780.31
2023-01-29T22:33:53.251Z,99776.84
2023-01-29T22:36:21.208Z,99770.00
2023-01-29T22:38:49.537Z,99766.72
2023-01-29T22:41:20.188Z,99765.72
2023-01-29T22:43:49.577Z,99758.84
2023-01-29T22:46:17.538Z,99759.69
2023-01-29T22:48:47.603Z,99762.25
2023-01-29T22:51:15.462Z,99748.53
2023-01-29T22:53:44.441Z,99752.88
2023-01-29T22:56:14.160Z,99753.69
2023-01-29T22:58:42.373Z,99756.28
2023-01-29T23:01:12.131Z,99756.31
2023-01-29T23:03:40.859Z,99762.38
2023-01-29T23:06:08.775Z,99752.00
2023-01-29T23:08:36.614Z,99733.06
2023-01-29T23:11:18.039Z,99721.88
2023-01-29T23:13:48.678Z,99717.59
2023-01-29T23:16:19.291Z,99708.09
2023-01-29T23:18:51.277Z,99699.47
2023-01-29T23:21:19.317Z,99707.19
2023-01-29T23:23:47.200Z,99709.84
2023-01-29T23:26:32.733Z,99722.78
2023-01-29T23:29:01.594Z,99729.66
2023-01-29T23:31:31.730Z,99727.09
2023-01-29T23:33:59.715Z,99722.84
2023-01-29T23:36:27.963Z,99725.50
2023-01-29T23:38:56.826Z,99709.00
2023-01-29T23:41:24.755Z,99722.81
2023-01-29T23:43:53.901Z,99710.75
2023-01-29T23:46:22.637Z,99712.50
2023-01-29T23:48:52.050Z,99721.97
2023-01-29T23:51:22.080Z,99721.06
2023-01-29T23:53:50.178Z,99728.88
2023-01-29T23:56:19.338Z,99735.75
2023-01-29T23:58:47.272Z,99738.31
